New Munich, Minnesota
Current Conditions -  °F | °C
As of 4:32 AM on Saturday 22 Nov 2014 (Local Time) from KD39 Reporting Station
Clear Clear  
Wind Chill: 19°   Ceiling: Unl
Heat Index: 25°   Visibility: 7mi
Dew Point: 23°   Wind: 5mph
Humidity: 94%   Direction: 210°SSW
Pressure: 29.72"   Gusts: NA
Location:  45.63°N, 94.75°W
Report Text: KD39 221032Z AUTO 21004KT 7SM CLR M04/M05 A2972 RMK AO2 T10401049
Loading
Personal Weather Stations






























Interactive Weather Map New forecast layout! Learn more

10-Day Weather Forecast

Advertisements
Track Severe Weather on mobile